createdAt,value
2022-12-25T00:02:10.424Z,85.07
2022-12-25T00:07:14.966Z,85.32
2022-12-25T00:12:19.814Z,85.36
2022-12-25T00:17:23.839Z,85.28
2022-12-25T00:22:27.791Z,85.36
2022-12-25T00:27:34.393Z,85.26
2022-12-25T00:32:38.412Z,85.20
2022-12-25T00:37:42.117Z,85.14
2022-12-25T00:42:45.845Z,85.13
2022-12-25T00:47:49.454Z,85.29
2022-12-25T00:52:53.071Z,85.46
2022-12-25T00:57:56.802Z,85.53
2022-12-25T01:03:00.559Z,85.44
2022-12-25T01:08:05.499Z,85.39
2022-12-25T01:13:09.099Z,85.30
2022-12-25T01:18:13.048Z,85.14
2022-12-25T01:23:17.769Z,85.14
2022-12-25T01:28:21.374Z,85.17
2022-12-25T01:33:25.214Z,85.15
2022-12-25T01:38:29.033Z,85.14
2022-12-25T01:43:34.640Z,85.12
2022-12-25T01:48:40.067Z,84.93
2022-12-25T01:53:43.780Z,85.08
2022-12-25T01:58:48.198Z,85.22
2022-12-25T02:04:03.107Z,85.43
2022-12-25T02:09:07.043Z,85.55
2022-12-25T02:14:11.265Z,85.52
2022-12-25T02:20:13.670Z,85.41
2022-12-25T02:25:58.656Z,85.28
2022-12-25T02:31:16.547Z,85.11
2022-12-25T02:36:27.268Z,85.10
2022-12-25T02:41:37.790Z,85.21
2022-12-25T02:47:03.217Z,85.25
2022-12-25T02:52:40.628Z,85.39
2022-12-25T02:58:08.961Z,85.59
2022-12-25T03:03:35.489Z,85.71
2022-12-25T03:08:45.412Z,85.58
2022-12-25T03:14:17.248Z,85.68
2022-12-25T03:19:46.046Z,85.67
2022-12-25T03:25:09.530Z,85.71
2022-12-25T03:30:39.764Z,85.51
2022-12-25T03:36:05.833Z,85.51
2022-12-25T03:41:52.559Z,85.63
2022-12-25T03:47:35.430Z,85.42
2022-12-25T03:53:00.318Z,85.60
2022-12-25T03:58:22.980Z,85.68
2022-12-25T04:03:45.716Z,85.76
2022-12-25T04:09:08.309Z,85.79
2022-12-25T04:14:38.656Z,85.74
2022-12-25T04:20:01.390Z,85.96
2022-12-25T04:25:24.712Z,86.13
2022-12-25T04:30:47.014Z,86.26
2022-12-25T04:36:09.439Z,86.11
2022-12-25T04:41:14.686Z,85.88
2022-12-25T04:46:18.343Z,85.77
2022-12-25T04:51:25.822Z,85.85
2022-12-25T04:56:29.640Z,85.88
2022-12-25T05:01:34.067Z,85.86
2022-12-25T05:06:37.982Z,85.87
2022-12-25T05:11:41.569Z,85.75
2022-12-25T05:16:45.353Z,85.81
2022-12-25T05:21:49.102Z,85.99
2022-12-25T05:26:52.897Z,85.90
2022-12-25T05:31:57.645Z,85.80
2022-12-25T05:37:01.121Z,85.88
2022-12-25T05:42:04.899Z,85.99
2022-12-25T05:47:08.446Z,86.07
2022-12-25T05:52:12.629Z,86.06
2022-12-25T05:57:16.224Z,85.83
2022-12-25T06:02:20.101Z,85.72
2022-12-25T06:07:23.883Z,85.75
2022-12-25T06:12:27.534Z,85.94
2022-12-25T06:17:34.056Z,86.07
2022-12-25T06:22:38.556Z,86.08
2022-12-25T06:27:45.048Z,86.03
2022-12-25T06:32:49.793Z,86.11
2022-12-25T06:37:54.479Z,86.40
2022-12-25T06:42:58.062Z,86.63
2022-12-25T06:48:04.258Z,86.57
2022-12-25T06:53:09.702Z,86.68
2022-12-25T06:58:14.955Z,86.68
2022-12-25T07:03:22.681Z,86.41
2022-12-25T07:08:26.264Z,86.57
2022-12-25T07:13:30.322Z,86.64
2022-12-25T07:18:36.101Z,86.53
2022-12-25T07:23:40.432Z,86.31
2022-12-25T07:28:44.390Z,86.42
2022-12-25T07:33:48.598Z,86.43
2022-12-25T07:38:52.319Z,86.45
2022-12-25T07:43:56.325Z,86.33
2022-12-25T07:49:00.328Z,86.33
2022-12-25T07:54:04.846Z,86.43
2022-12-25T07:59:09.154Z,86.42
2022-12-25T08:04:13.284Z,86.51
2022-12-25T08:09:17.121Z,86.25
2022-12-25T08:14:21.047Z,86.14
2022-12-25T08:19:24.988Z,86.06
2022-12-25T08:24:28.910Z,86.07
2022-12-25T08:29:34.007Z,85.92
2022-12-25T08:34:40.757Z,85.79
2022-12-25T08:39:44.678Z,85.79
2022-12-25T08:44:48.817Z,85.79
2022-12-25T08:49:54.977Z,85.69
2022-12-25T08:54:59.329Z,85.71
2022-12-25T09:00:08.566Z,85.54
2022-12-25T09:05:14.359Z,85.27
2022-12-25T09:10:23.165Z,85.07
2022-12-25T09:15:30.267Z,84.94
2022-12-25T09:20:39.027Z,84.64
2022-12-25T09:25:46.960Z,84.61
2022-12-25T09:30:53.857Z,84.71
2022-12-25T09:36:02.410Z,84.59
2022-12-25T09:41:58.327Z,84.69
2022-12-25T09:47:13.827Z,84.57
2022-12-25T09:52:55.457Z,84.70
2022-12-25T09:58:08.922Z,84.71
2022-12-25T10:04:02.418Z,84.67
2022-12-25T10:09:24.649Z,84.35
2022-12-25T10:14:59.812Z,84.71
2022-12-25T10:20:53.498Z,85.29
2022-12-25T10:26:16.622Z,85.36
2022-12-25T10:31:34.353Z,85.32
2022-12-25T10:36:38.765Z,85.42
2022-12-25T10:42:23.670Z,85.61
2022-12-25T10:47:33.433Z,85.68
2022-12-25T10:57:58.216Z,85.75
2022-12-25T11:03:02.296Z,85.97
2022-12-25T11:08:23.645Z,85.92
2022-12-25T11:13:30.931Z,85.99
2022-12-25T11:18:54.239Z,85.83
2022-12-25T11:24:02.634Z,85.82
2022-12-25T11:29:26.245Z,86.08
2022-12-25T11:34:49.423Z,86.13
2022-12-25T11:39:53.168Z,86.04
2022-12-25T11:45:24.524Z,85.93
2022-12-25T11:50:36.760Z,85.69
2022-12-25T11:55:57.432Z,85.97
2022-12-25T12:01:27.948Z,85.65
2022-12-25T12:07:01.539Z,85.51
2022-12-25T12:12:15.932Z,85.14
2022-12-25T12:17:20.803Z,85.29
2022-12-25T12:22:28.677Z,85.43
2022-12-25T12:27:39.727Z,85.51
2022-12-25T12:32:54.282Z,85.51
2022-12-25T12:38:04.715Z,85.50
2022-12-25T12:43:23.294Z,85.67
2022-12-25T12:48:30.651Z,85.57
2022-12-25T12:53:35.609Z,85.52
2022-12-25T12:58:46.630Z,85.75
2022-12-25T13:04:09.037Z,85.74
2022-12-25T13:09:36.086Z,85.54
2022-12-25T13:14:48.516Z,85.50
2022-12-25T13:20:02.806Z,85.50
2022-12-25T13:25:20.148Z,85.32
2022-12-25T13:30:25.990Z,85.11
2022-12-25T13:35:30.439Z,84.93
2022-12-25T13:40:35.103Z,85.03
2022-12-25T13:45:39.039Z,85.05
2022-12-25T13:50:48.976Z,85.00
2022-12-25T13:55:56.293Z,85.09
2022-12-25T14:01:03.065Z,84.99
2022-12-25T14:06:31.186Z,84.80
2022-12-25T14:11:36.835Z,84.75
2022-12-25T14:16:45.055Z,84.89
2022-12-25T14:22:12.624Z,84.88
2022-12-25T14:27:30.930Z,84.79
2022-12-25T14:32:44.303Z,84.69
2022-12-25T14:37:56.795Z,84.64
2022-12-25T14:43:03.835Z,84.82
2022-12-25T14:48:25.486Z,84.83
2022-12-25T14:53:46.874Z,84.94
2022-12-25T14:59:00.520Z,85.01
2022-12-25T15:04:11.591Z,85.07
2022-12-25T15:09:19.439Z,85.09
2022-12-25T15:14:25.586Z,85.26
2022-12-25T15:19:38.999Z,85.13
2022-12-25T15:24:43.102Z,85.21
2022-12-25T15:35:21.876Z,85.46
2022-12-25T15:40:25.646Z,85.65
2022-12-25T15:45:31.500Z,85.81
2022-12-25T15:50:37.096Z,85.86
2022-12-25T15:55:41.612Z,85.97
2022-12-25T16:00:45.407Z,86.18
2022-12-25T16:05:51.097Z,86.55
2022-12-25T16:10:55.321Z,86.50
2022-12-25T16:15:59.473Z,86.51
2022-12-25T16:21:03.625Z,86.42
2022-12-25T16:26:07.709Z,86.47
2022-12-25T16:31:12.720Z,86.75
2022-12-25T16:36:19.494Z,86.86
2022-12-25T16:41:27.588Z,87.23
2022-12-25T16:46:32.063Z,87.15
2022-12-25T16:51:36.243Z,87.18
2022-12-25T16:56:40.904Z,87.17
2022-12-25T17:01:45.653Z,87.31
2022-12-25T17:06:49.934Z,87.19
2022-12-25T17:11:53.806Z,87.51
2022-12-25T17:16:58.147Z,87.95
2022-12-25T17:22:02.460Z,88.06
2022-12-25T17:27:09.035Z,88.10
2022-12-25T17:32:13.125Z,88.43
2022-12-25T17:37:17.654Z,88.67
2022-12-25T17:42:21.563Z,88.68
2022-12-25T17:47:26.601Z,88.68
2022-12-25T17:52:33.337Z,88.69
2022-12-25T17:57:41.037Z,88.69
2022-12-25T18:02:47.670Z,88.75
2022-12-25T18:07:52.691Z,88.69
2022-12-25T18:12:57.321Z,88.86
2022-12-25T18:18:01.449Z,88.97
2022-12-25T18:23:06.090Z,89.04
2022-12-25T18:28:11.567Z,89.39
2022-12-25T18:33:16.938Z,89.40
2022-12-25T18:38:22.483Z,89.41
2022-12-25T18:43:54.196Z,89.64
2022-12-25T18:48:52.400Z,89.72
2022-12-25T18:53:58.567Z,89.86
2022-12-25T18:59:02.796Z,89.86
2022-12-25T19:04:09.171Z,89.85
2022-12-25T19:09:14.367Z,90.04
2022-12-25T19:14:19.893Z,89.98
2022-12-25T19:19:27.378Z,90.01
2022-12-25T19:24:34.166Z,89.97
2022-12-25T19:29:38.534Z,89.97
2022-12-25T19:34:43.487Z,90.06
2022-12-25T19:39:48.125Z,90.07
2022-12-25T19:44:51.838Z,90.06
2022-12-25T19:49:58.406Z,90.06
2022-12-25T19:55:09.259Z,89.85
2022-12-25T20:00:15.554Z,89.71
2022-12-25T20:05:22.446Z,89.65
2022-12-25T20:10:26.709Z,89.54
2022-12-25T20:15:46.517Z,89.52
2022-12-25T20:21:14.535Z,89.70
2022-12-25T20:26:23.873Z,89.85
2022-12-25T20:31:34.466Z,89.97
2022-12-25T20:36:38.879Z,89.96
2022-12-25T20:41:45.501Z,89.96
2022-12-25T20:46:50.975Z,89.88
2022-12-25T20:51:59.800Z,89.65
2022-12-25T20:57:09.381Z,89.60
2022-12-25T21:02:34.969Z,89.41
2022-12-25T21:07:38.822Z,89.50
2022-12-25T21:12:43.007Z,89.35
2022-12-25T21:17:47.320Z,89.40
2022-12-25T21:22:52.721Z,89.32
2022-12-25T21:28:01.063Z,89.39
2022-12-25T21:33:25.172Z,89.58
2022-12-25T21:38:29.124Z,89.58
2022-12-25T21:43:34.752Z,89.49
2022-12-25T21:48:41.296Z,89.57
2022-12-25T21:53:46.010Z,89.63
2022-12-25T21:58:51.534Z,89.88
2022-12-25T22:03:57.475Z,89.98
2022-12-25T22:09:03.179Z,90.12
2022-12-25T22:14:50.511Z,90.33
2022-12-25T22:19:57.910Z,90.28
2022-12-25T22:25:04.878Z,90.26
2022-12-25T22:30:22.066Z,90.21
2022-12-25T22:35:27.585Z,90.24
2022-12-25T22:40:31.933Z,90.18
2022-12-25T22:45:37.500Z,90.17
2022-12-25T22:50:41.307Z,90.07
2022-12-25T22:55:50.778Z,90.06
2022-12-25T23:00:55.237Z,89.93
2022-12-25T23:05:59.198Z,89.92
2022-12-25T23:11:06.515Z,89.82
2022-12-25T23:16:15.856Z,89.76
2022-12-25T23:21:38.669Z,89.75
2022-12-25T23:26:43.522Z,89.57
2022-12-25T23:31:54.001Z,89.54
2022-12-25T23:36:58.532Z,89.57
2022-12-25T23:42:03.189Z,89.54
2022-12-25T23:47:06.923Z,89.66
2022-12-25T23:52:13.543Z,89.70
2022-12-25T23:57:17.219Z,89.57
